Time;durP1;ratioP1;P1;durP2;ratioP2;P2;SDS_P1;SDS_P2;PMS_P1;PMS_P2;Temp;Humidity;BMP_temperature;BMP_pressure;BME280_temperature;BME280_humidity;BME280_pressure;Samples;Min_cycle;Max_cycle;Signal;HPM_P1;HPM_P2
2022/02/01 00:00:23;;;;;;;;;10.00;7.00;;;;;9.27;44.75;102211.75;2080707;28;48388;-60
2022/02/01 00:01:30;;;;;;;;;7.00;6.60;;;;;9.26;44.60;102201.16;2086428;28;45570;-62
2022/02/01 00:02:56;;;;;;;;;7.80;6.00;;;;;9.26;44.63;102201.16;2077445;28;48040;-60
2022/02/01 00:03:55;;;;;;;;;5.80;5.80;;;;;9.25;44.62;102189.66;2081538;28;48117;-59
2022/02/01 00:05:07;;;;;;;;;5.80;5.80;;;;;9.26;44.54;102198.50;2080721;28;47632;-62
2022/02/01 00:06:15;;;;;;;;;8.40;7.60;;;;;9.25;44.46;102200.25;2086928;28;47977;-58
2022/02/01 00:11:55;;;;;;;;;7.20;4.40;;;;;9.19;44.67;102199.34;2087830;28;47879;-58
2022/02/01 00:33:42;;;;;;;;;7.20;7.20;;;;;9.13;44.80;102194.88;2054929;28;45778;-59
2022/02/01 00:37:00;;;;;;;;;4.60;4.60;;;;;9.11;44.76;102197.50;2054573;28;48111;-61
2022/02/01 00:38:11;;;;;;;;;8.00;6.40;;;;;9.11;45.00;102193.97;2058652;28;47656;-59
2022/02/01 00:39:14;;;;;;;;;5.20;5.20;;;;;9.11;44.99;102194.88;2057488;28;46511;-60
2022/02/01 00:40:15;;;;;;;;;6.40;6.40;;;;;9.11;44.69;102196.63;2053426;28;46268;-60
2022/02/01 00:41:17;;;;;;;;;5.75;5.25;;;;;9.11;45.02;102196.63;2053848;28;47207;-60
2022/02/01 00:42:17;;;;;;;;;8.40;5.40;;;;;9.10;44.91;102201.03;2053232;28;47880;-58
2022/02/01 00:43:18;;;;;;;;;6.25;6.25;;;;;9.11;44.64;102199.28;2058301;28;47665;-60
2022/02/01 00:44:20;;;;;;;;;5.75;5.75;;;;;9.12;45.08;102201.03;2058881;28;47387;-59
2022/02/01 00:45:21;;;;;;;;;5.80;4.40;;;;;9.12;44.78;102201.94;2054388;28;46246;-58
2022/02/01 00:46:21;;;;;;;;;5.00;5.00;;;;;9.11;44.71;102200.16;2052859;28;47473;-59
2022/02/01 00:47:22;;;;;;;;;4.00;4.00;;;;;9.12;44.86;102193.09;2060249;28;48052;-60
2022/02/01 00:48:22;;;;;;;;;5.25;5.25;;;;;9.11;44.63;102194.88;2057853;28;47567;-60
2022/02/01 00:49:24;;;;;;;;;5.00;5.00;;;;;9.11;44.72;102200.16;2058768;28;47402;-58
2022/02/01 00:50:24;;;;;;;;;5.00;5.00;;;;;9.09;44.65;102196.63;2054921;28;47615;-59
2022/02/01 00:51:25;;;;;;;;;6.00;4.75;;;;;9.09;44.66;102203.69;2057838;28;48141;-61
2022/02/01 00:52:27;;;;;;;;;4.25;4.25;;;;;9.07;44.55;102198.38;2054858;28;47590;-60
2022/02/01 00:53:30;;;;;;;;;5.00;5.00;;;;;9.07;44.51;102203.66;2089817;28;47623;-59
2022/02/01 00:54:31;;;;;;;;;6.60;4.80;;;;;9.06;44.72;102209.84;2087456;28;48119;-58
2022/02/01 00:55:31;;;;;;;;;3.25;3.25;;;;;9.05;44.64;102213.38;2088148;28;48169;-61
2022/02/01 00:56:32;;;;;;;;;9.00;6.00;;;;;9.06;44.38;102216.91;2087213;28;47857;-60
2022/02/01 00:57:32;;;;;;;;;6.00;6.00;;;;;9.05;44.76;102218.66;2085996;28;48136;-59
2022/02/01 00:58:33;;;;;;;;;6.00;5.75;;;;;9.05;44.67;102217.78;2073813;28;47766;-58
2022/02/01 00:59:33;;;;;;;;;2.50;2.50;;;;;9.04;44.71;102221.31;2077077;28;47648;-59
2022/02/01 01:00:33;;;;;;;;;7.00;5.50;;;;;9.03;44.60;102228.34;2078889;28;48160;-58
2022/02/01 01:01:34;;;;;;;;;8.00;5.00;;;;;9.03;44.68;102231.00;2077728;28;47759;-60
2022/02/01 01:02:35;;;;;;;;;7.50;5.00;;;;;9.03;44.60;102220.41;2085966;28;47251;-57
2022/02/01 01:03:35;;;;;;;;;7.50;5.75;;;;;9.03;44.75;102222.19;2089165;28;48326;-59
2022/02/01 01:04:36;;;;;;;;;6.25;6.25;;;;;9.02;44.71;102223.94;2086568;28;47856;-60
2022/02/01 01:05:37;;;;;;;;;6.60;6.60;;;;;9.02;44.79;102223.03;2069712;28;46000;-58
2022/02/01 01:06:38;;;;;;;;;6.75;5.00;;;;;9.02;44.70;102237.19;2072757;28;47872;-59
2022/02/01 01:07:38;;;;;;;;;6.50;6.00;;;;;9.02;44.83;102231.88;2079481;28;47406;-60
2022/02/01 01:08:40;;;;;;;;;6.50;6.25;;;;;9.04;44.84;102247.78;2086405;28;46906;-60
2022/02/01 01:09:40;;;;;;;;;6.60;6.20;;;;;9.03;44.92;102238.94;2085100;28;45328;-58
2022/02/01 01:10:41;;;;;;;;;4.00;3.00;;;;;9.05;44.83;102236.31;2085568;28;48182;-60
2022/02/01 01:11:42;;;;;;;;;6.60;5.80;;;;;9.05;44.99;102241.63;2084859;28;47624;-61
2022/02/01 01:15:24;;;;;;;;;7.40;5.40;;;;;9.04;44.87;102224.84;2061546;28;47126;-59
2022/02/01 01:43:54;;;;;;;;;6.40;6.40;;;;;8.94;45.68;102199.16;2031303;29;47461;-59
2022/02/01 01:45:00;;;;;;;;;5.60;5.60;;;;;8.92;45.30;102192.97;2031435;29;46873;-60
2022/02/01 01:46:16;;;;;;;;;5.20;4.60;;;;;8.92;45.47;102194.72;2039299;28;47740;-61
2022/02/01 01:53:59;;;;;;;;;6.40;5.20;;;;;8.84;46.01;102205.22;2088699;28;47694;-60
2022/02/01 01:55:00;;;;;;;;;9.40;6.00;;;;;8.84;45.96;102206.09;2086220;28;46669;-60
2022/02/01 01:56:01;;;;;;;;;6.00;4.50;;;;;8.84;45.99;102205.22;2088064;28;47125;-62
2022/02/01 01:57:01;;;;;;;;;5.00;5.00;;;;;8.82;46.28;102213.16;2088154;28;47456;-58
2022/02/01 01:58:03;;;;;;;;;6.00;6.00;;;;;8.82;46.23;102209.63;2088130;28;47082;-60
2022/02/01 01:59:06;;;;;;;;;9.00;7.60;;;;;8.81;46.29;102210.50;2088429;28;47150;-59
2022/02/01 02:00:14;;;;;;;;;8.00;6.00;;;;;8.81;46.13;102215.78;2086181;28;48075;-59
2022/02/01 02:01:15;;;;;;;;;5.60;4.60;;;;;8.81;46.33;102206.09;2089074;28;48243;-58
2022/02/01 02:02:15;;;;;;;;;4.25;4.25;;;;;8.82;46.40;102212.28;2097303;28;47529;-61
2022/02/01 02:03:15;;;;;;;;;8.00;6.25;;;;;8.82;46.40;102206.97;2097062;28;47678;-58
2022/02/01 02:04:18;;;;;;;;;5.00;4.25;;;;;8.82;46.50;102202.56;2096938;28;47354;-60
2022/02/01 02:05:18;;;;;;;;;5.80;4.40;;;;;8.83;46.43;102204.34;2097080;28;45713;-60
2022/02/01 02:06:19;;;;;;;;;6.50;5.50;;;;;8.83;46.57;102204.34;2096947;28;47608;-57
2022/02/01 02:07:19;;;;;;;;;6.25;6.25;;;;;8.83;46.58;102200.81;2097027;28;48048;-60
2022/02/01 02:08:20;;;;;;;;;4.00;3.00;;;;;8.83;46.61;102204.34;2088972;28;48015;-59
2022/02/01 02:09:21;;;;;;;;;4.50;4.50;;;;;8.84;46.67;102205.22;2088744;28;47842;-59
2022/02/01 02:10:27;;;;;;;;;3.00;2.50;;;;;8.82;46.90;102204.31;2088708;28;47363;-59
2022/02/01 02:11:41;;;;;;;;;5.80;5.20;;;;;8.83;46.73;102209.63;2088419;28;47910;-62
2022/02/01 02:15:41;;;;;;;;;5.00;5.00;;;;;8.82;47.12;102202.56;2097072;28;47727;-58
2022/02/01 02:16:44;;;;;;;;;5.00;5.00;;;;;8.82;46.83;102197.28;2089538;28;47911;-59
2022/02/01 02:17:45;;;;;;;;;5.20;4.00;;;;;8.83;46.98;102196.41;2097040;28;48220;-57
2022/02/01 02:18:45;;;;;;;;;7.00;6.25;;;;;8.82;47.17;102197.28;2096594;28;47750;-60
2022/02/01 02:19:46;;;;;;;;;4.50;3.75;;;;;8.84;47.10;102205.22;2091900;28;47906;-61
2022/02/01 02:20:53;;;;;;;;;6.00;4.75;;;;;8.83;47.16;102209.63;2085636;28;47599;-58
2022/02/01 02:21:57;;;;;;;;;5.80;5.60;;;;;8.84;47.29;102207.88;2088123;28;47679;-58
2022/02/01 02:22:57;;;;;;;;;5.00;4.80;;;;;8.82;47.08;102215.81;2080849;28;47913;-60
2022/02/01 02:23:58;;;;;;;;;4.75;4.50;;;;;8.85;47.33;102212.28;2087560;28;48081;-60
2022/02/01 02:24:59;;;;;;;;;3.60;3.60;;;;;8.85;47.32;102221.13;2096911;28;47519;-60
2022/02/01 02:26:04;;;;;;;;;7.75;6.00;;;;;8.88;47.42;102222.00;2089162;28;47830;-60
2022/02/01 02:27:05;;;;;;;;;8.20;8.20;;;;;8.88;47.25;102209.66;2080540;28;47841;-58
2022/02/01 02:28:08;;;;;;;;;10.80;10.80;;;;;8.89;47.18;102203.50;2088483;28;47447;-57
2022/02/01 02:29:09;;;;;;;;;7.20;4.80;;;;;8.90;47.17;102210.59;2080483;28;47503;-59
2022/02/01 02:30:10;;;;;;;;;8.25;6.00;;;;;8.90;47.05;102204.41;2090480;28;47463;-60
2022/02/01 02:31:11;;;;;;;;;7.00;6.20;;;;;8.91;47.16;102211.47;2079061;28;46314;-60
2022/02/01 02:32:11;;;;;;;;;3.40;3.40;;;;;8.90;47.31;102205.31;2081967;28;47287;-59
2022/02/01 02:33:15;;;;;;;;;7.40;7.20;;;;;8.90;47.30;102209.72;2096493;28;47826;-59
2022/02/01 02:34:17;;;;;;;;;8.00;6.80;;;;;8.91;47.55;102203.53;2097189;28;45445;-57
2022/02/01 02:35:19;;;;;;;;;5.20;5.20;;;;;8.91;47.40;102208.84;2096791;28;47552;-60
2022/02/01 02:36:21;;;;;;;;;4.40;4.40;;;;;8.92;47.61;102207.97;2090399;28;48415;-60
2022/02/01 02:37:28;;;;;;;;;6.00;6.00;;;;;8.91;47.71;102208.84;2087845;28;48252;-59
2022/02/01 02:38:40;;;;;;;;;6.20;5.60;;;;;8.91;47.68;102201.78;2096166;28;47911;-60
2022/02/01 02:40:04;;;;;;;;;5.40;5.20;;;;;8.92;47.62;102190.31;2089118;28;47779;-58
2022/02/01 02:41:33;;;;;;;;;8.20;5.60;;;;;8.94;47.63;102192.97;2092769;28;47568;-60
2022/02/01 02:45:03;;;;;;;;;5.80;5.80;;;;;8.94;47.78;102185.91;2096304;28;47829;-59
2022/02/01 02:45:13;;;;;;;;;6.60;6.60;;;;;8.95;47.91;102186.78;2088307;28;47297;-59
2022/02/01 02:46:13;;;;;;;;;6.40;6.40;;;;;8.96;47.82;102191.22;2079303;28;48094;-60
2022/02/01 02:47:14;;;;;;;;;6.00;5.00;;;;;8.97;48.05;102195.63;2075886;28;47820;-58
2022/02/01 02:48:14;;;;;;;;;4.75;4.75;;;;;8.97;47.89;102195.63;2085371;28;47802;-61
2022/02/01 02:49:21;;;;;;;;;7.75;6.50;;;;;8.95;47.73;102190.31;2078093;28;46288;-59
2022/02/01 02:50:23;;;;;;;;;5.20;5.20;;;;;8.96;47.93;102185.91;2080174;28;47901;-58
2022/02/01 02:51:24;;;;;;;;;3.40;2.80;;;;;8.96;47.93;102181.50;2088571;28;48378;-59
2022/02/01 02:52:26;;;;;;;;;6.25;6.25;;;;;8.96;48.11;102178.84;2081646;28;47868;-60
2022/02/01 02:53:26;;;;;;;;;6.00;5.80;;;;;8.97;47.93;102171.81;2094842;28;47965;-59
2022/02/01 02:54:28;;;;;;;;;8.00;8.00;;;;;8.97;47.98;102172.69;2094778;28;47440;-60
2022/02/01 02:55:31;;;;;;;;;5.40;5.40;;;;;8.97;48.37;102166.50;2082906;28;47959;-61
2022/02/01 02:56:33;;;;;;;;;10.60;7.00;;;;;8.97;48.05;102162.09;2095576;28;47399;-61
2022/02/01 02:57:34;;;;;;;;;6.60;6.60;;;;;8.98;48.24;102152.38;2088535;28;48430;-59
2022/02/01 02:58:34;;;;;;;;;5.20;5.20;;;;;8.97;48.26;102156.81;2078436;28;48253;-59
2022/02/01 02:59:36;;;;;;;;;5.00;4.00;;;;;8.98;48.33;102147.09;2078946;28;47278;-58
2022/02/01 03:00:37;;;;;;;;;7.00;7.00;;;;;8.98;48.23;102145.34;2087974;28;47518;-58
2022/02/01 03:01:39;;;;;;;;;4.60;4.60;;;;;8.98;48.22;102150.63;2090274;28;47695;-59
2022/02/01 03:02:39;;;;;;;;;9.40;6.60;;;;;8.99;48.59;102149.75;2088425;28;47523;-60
2022/02/01 03:03:39;;;;;;;;;4.50;4.50;;;;;8.99;48.75;102148.88;2079956;28;47394;-59
2022/02/01 03:04:40;;;;;;;;;10.00;6.75;;;;;8.98;48.73;102153.28;2082533;28;47970;-57
2022/02/01 03:05:40;;;;;;;;;7.00;5.00;;;;;8.99;48.75;102147.09;2088048;28;48026;-59
2022/02/01 03:06:42;;;;;;;;;5.00;5.00;;;;;8.99;48.75;102148.88;2087955;28;47488;-58
2022/02/01 03:07:42;;;;;;;;;6.80;6.80;;;;;8.99;48.87;102152.41;2086613;28;47122;-59
2022/02/01 03:08:43;;;;;;;;;5.25;5.00;;;;;9.00;48.71;102155.94;2088892;28;47666;-62
2022/02/01 03:09:44;;;;;;;;;6.50;6.50;;;;;8.98;48.84;102147.97;2091661;28;47676;-62
2022/02/01 03:10:45;;;;;;;;;5.40;5.40;;;;;8.98;48.99;102153.28;2088137;28;47528;-57
2022/02/01 03:11:47;;;;;;;;;5.00;5.00;;;;;8.98;48.92;102145.34;2086455;28;47954;-59
2022/02/01 03:13:58;;;;;;;;;5.00;4.00;;;;;8.99;49.25;102162.09;2088112;28;47463;-58
2022/02/01 03:15:19;;;;;;;;;6.50;5.00;;;;;8.97;49.01;102164.75;2087776;28;47210;-58
2022/02/01 03:20:00;;;;;;;;;7.50;6.00;;;;;8.95;49.55;102149.72;2090881;28;47889;-59
2022/02/01 03:21:01;;;;;;;;;5.00;5.00;;;;;8.97;49.61;102155.91;2096479;28;48311;-58
2022/02/01 03:22:01;;;;;;;;;8.75;6.50;;;;;8.97;49.55;102145.31;2089293;28;48147;-59
2022/02/01 03:23:02;;;;;;;;;5.50;5.50;;;;;8.97;49.71;102145.31;2063892;28;47885;-60
2022/02/01 03:24:03;;;;;;;;;7.00;5.00;;;;;8.98;49.84;102147.09;2062560;28;47710;-60
2022/02/01 03:25:04;;;;;;;;;5.40;5.00;;;;;8.97;49.82;102140.91;2083839;28;48037;-61
2022/02/01 03:26:05;;;;;;;;;6.25;5.75;;;;;8.98;49.86;102137.38;2091568;28;47584;-61
2022/02/01 03:27:06;;;;;;;;;7.33;4.00;;;;;8.99;49.77;102140.91;2086510;28;48585;-59
2022/02/01 03:28:06;;;;;;;;;4.00;4.00;;;;;8.99;49.93;102136.50;2066292;28;45957;-61
2022/02/01 03:29:07;;;;;;;;;5.00;5.00;;;;;9.00;49.95;102137.41;2056435;28;47393;-59
2022/02/01 03:30:08;;;;;;;;;4.33;3.33;;;;;9.01;49.86;102137.41;2054838;28;47583;-61
2022/02/01 03:31:08;;;;;;;;;6.50;6.50;;;;;9.01;50.17;102136.53;2050098;28;47696;-60
2022/02/01 03:32:10;;;;;;;;;5.25;5.25;;;;;9.00;50.09;102138.28;2051412;28;47818;-59
2022/02/01 03:33:10;;;;;;;;;4.60;4.60;;;;;9.00;50.07;102140.94;2054052;28;47529;-59
2022/02/01 03:34:11;;;;;;;;;4.25;3.25;;;;;9.00;50.20;102140.03;2060133;28;47955;-60
2022/02/01 03:35:11;;;;;;;;;3.75;3.75;;;;;9.00;50.04;102137.41;2055758;28;48136;-59
2022/02/01 03:36:12;;;;;;;;;6.00;5.00;;;;;9.00;49.72;102138.28;2058482;28;47833;-59
2022/02/01 03:37:12;;;;;;;;;4.00;4.00;;;;;9.01;50.23;102145.34;2059150;28;47834;-60
2022/02/01 03:38:13;;;;;;;;;5.00;4.67;;;;;9.02;50.10;102140.94;2054568;28;48118;-58
2022/02/01 03:39:15;;;;;;;;;5.00;5.00;;;;;9.02;50.43;102144.50;2054165;28;47755;-60
2022/02/01 03:40:18;;;;;;;;;5.75;4.50;;;;;9.03;50.66;102154.22;2054406;28;47618;-60
2022/02/01 03:41:20;;;;;;;;;6.75;5.75;;;;;9.03;50.33;102151.56;2053740;28;47682;-60
2022/02/01 03:42:21;;;;;;;;;3.25;3.25;;;;;9.03;50.24;102156.88;2053953;28;47987;-61
2022/02/01 03:43:22;;;;;;;;;4.00;4.00;;;;;9.03;50.54;102154.22;2054331;28;48337;-59
2022/02/01 03:44:23;;;;;;;;;4.00;4.00;;;;;9.03;50.70;102155.97;2053906;28;47529;-58
2022/02/01 03:45:23;;;;;;;;;5.33;4.33;;;;;9.03;50.64;102150.69;2054035;28;47341;-60
2022/02/01 03:46:24;;;;;;;;;5.67;5.33;;;;;9.04;50.73;102157.75;2054201;28;48162;-60
2022/02/01 03:47:26;;;;;;;;;4.00;4.00;;;;;9.04;50.74;102145.41;2054082;28;47758;-61
2022/02/01 03:48:26;;;;;;;;;5.75;4.75;;;;;9.04;51.09;102153.34;2058628;28;47677;-59
2022/02/01 03:49:35;;;;;;;;;6.75;4.50;;;;;9.04;50.90;102150.69;2036454;28;47800;-58
2022/02/01 03:50:35;;;;;;;;;6.25;5.25;;;;;9.06;51.04;102148.06;2033931;28;47484;-60
2022/02/01 03:51:36;;;;;;;;;4.75;4.75;;;;;9.04;51.08;102137.44;2053884;28;47867;-59
2022/02/01 03:52:36;;;;;;;;;5.00;4.33;;;;;9.04;51.08;102132.16;2056094;28;47828;-61
2022/02/01 03:53:37;;;;;;;;;5.67;5.00;;;;;9.04;51.38;102125.97;2060013;28;47991;-59
2022/02/01 03:54:38;;;;;;;;;6.00;4.00;;;;;9.05;51.28;102125.09;2053975;28;48173;-59
2022/02/01 03:55:39;;;;;;;;;4.40;4.40;;;;;9.05;51.37;102122.44;2053883;28;47560;-59
2022/02/01 03:56:40;;;;;;;;;7.00;7.00;;;;;9.04;51.26;102116.28;2059928;28;47337;-62
2022/02/01 03:57:40;;;;;;;;;4.00;4.00;;;;;9.06;51.46;102110.97;2055016;28;47577;-61
2022/02/01 03:58:41;;;;;;;;;5.67;5.67;;;;;9.06;51.28;102114.50;2057878;28;47854;-60
2022/02/01 03:59:44;;;;;;;;;5.00;5.00;;;;;9.07;51.58;102110.97;2063952;28;46664;-61
2022/02/01 04:00:44;;;;;;;;;6.60;6.60;;;;;9.08;51.28;102119.81;2070800;28;47616;-60
2022/02/01 04:01:45;;;;;;;;;5.75;4.75;;;;;9.07;51.62;102116.28;2071153;28;47639;-60
2022/02/01 04:02:45;;;;;;;;;5.67;4.00;;;;;9.07;51.53;102108.34;2077035;28;47445;-60
2022/02/01 04:03:46;;;;;;;;;7.00;5.00;;;;;9.07;51.26;102105.69;2076373;28;48111;-58
2022/02/01 04:04:52;;;;;;;;;7.00;5.00;;;;;9.09;51.58;102103.03;2079475;28;47664;-61
2022/02/01 04:05:53;;;;;;;;;3.75;3.50;;;;;9.09;51.79;102106.56;2079534;28;47866;-59
2022/02/01 04:06:55;;;;;;;;;5.00;5.00;;;;;9.11;51.74;102106.59;2079427;28;48009;-59
2022/02/01 04:07:56;;;;;;;;;5.80;4.00;;;;;9.10;51.71;102107.47;2079339;28;47933;-59
2022/02/01 04:08:56;;;;;;;;;5.00;5.00;;;;;9.09;51.78;102111.88;2079647;28;47348;-57
2022/02/01 04:09:57;;;;;;;;;4.33;4.33;;;;;9.08;51.93;102112.75;2079402;28;47294;-61
2022/02/01 04:10:57;;;;;;;;;4.00;4.00;;;;;9.07;51.88;102110.09;2079175;28;47808;-60
2022/02/01 04:12:00;;;;;;;;;5.00;4.00;;;;;9.08;52.10;102109.22;2079681;28;47286;-60
2022/02/01 04:13:03;;;;;;;;;5.00;4.25;;;;;9.07;52.11;102107.44;2079362;28;47763;-59
2022/02/01 04:14:04;;;;;;;;;5.00;5.00;;;;;9.07;52.41;102115.41;2079601;28;48232;-61
2022/02/01 04:15:06;;;;;;;;;7.75;6.75;;;;;9.05;52.10;102107.44;2079572;28;47551;-59
2022/02/01 04:16:07;;;;;;;;;7.25;4.25;;;;;9.05;52.33;102102.16;2079559;28;48129;-64
2022/02/01 04:17:10;;;;;;;;;5.00;5.00;;;;;9.05;52.47;102115.38;2079801;28;47092;-59
2022/02/01 04:18:11;;;;;;;;;2.00;2.00;;;;;9.05;52.58;102118.03;2075383;28;48080;-60
2022/02/01 04:19:12;;;;;;;;;5.40;5.00;;;;;9.06;52.48;102110.97;2073734;28;48041;-59
2022/02/01 04:20:13;;;;;;;;;5.20;3.20;;;;;9.06;52.68;102117.16;2084966;28;46912;-59
2022/02/01 04:21:14;;;;;;;;;7.00;4.00;;;;;9.05;52.85;102106.56;2082060;28;47216;-59
2022/02/01 04:22:15;;;;;;;;;3.33;3.33;;;;;9.05;53.00;102104.78;2079479;28;47978;-60
2022/02/01 04:23:15;;;;;;;;;4.25;4.00;;;;;9.06;53.17;102103.03;2079213;28;47826;-58
2022/02/01 04:24:16;;;;;;;;;5.75;5.00;;;;;9.05;52.89;102099.50;2070623;28;47467;-59
2022/02/01 04:25:16;;;;;;;;;5.00;5.00;;;;;9.07;53.17;102096.84;2070766;28;47572;-59
2022/02/01 04:26:17;;;;;;;;;7.00;6.00;;;;;9.06;53.33;102095.09;2078013;28;48052;-57
2022/02/01 04:27:32;;;;;;;;;4.33;4.00;;;;;9.07;53.13;102105.69;2077150;28;47755;-60
2022/02/01 04:28:33;;;;;;;;;5.75;3.00;;;;;9.06;53.40;102098.63;2069833;28;48019;-61
2022/02/01 04:29:35;;;;;;;;;5.00;4.00;;;;;9.05;53.30;102102.16;2070228;28;47852;-58
2022/02/01 04:30:36;;;;;;;;;5.00;5.00;;;;;9.05;53.39;102103.91;2079565;28;47507;-59
2022/02/01 04:31:36;;;;;;;;;4.67;4.33;;;;;9.06;53.34;102106.56;2079059;28;47028;-60
2022/02/01 04:32:41;;;;;;;;;5.67;4.67;;;;;9.07;53.59;102102.16;2079733;28;47118;-59
2022/02/01 04:33:41;;;;;;;;;5.00;5.00;;;;;9.08;53.74;102104.81;2094574;28;47795;-59
2022/02/01 04:34:43;;;;;;;;;4.33;4.33;;;;;9.08;53.38;102104.81;2085130;28;47573;-58
2022/02/01 04:35:43;;;;;;;;;4.25;3.25;;;;;9.10;53.66;102112.75;2090452;28;47850;-61
2022/02/01 04:36:44;;;;;;;;;5.00;5.00;;;;;9.10;53.58;102115.41;2080247;28;47050;-59
2022/02/01 04:37:45;;;;;;;;;5.00;4.00;;;;;9.10;53.81;102124.25;2079203;28;47768;-60
2022/02/01 04:38:55;;;;;;;;;7.00;4.67;;;;;9.11;53.78;102115.41;2084479;28;47989;-58
2022/02/01 04:39:56;;;;;;;;;4.50;4.25;;;;;9.11;53.61;102117.19;2061680;28;47903;-61
2022/02/01 04:40:57;;;;;;;;;6.00;5.00;;;;;9.10;53.79;102113.66;2057413;28;48393;-60
2022/02/01 04:41:57;;;;;;;;;5.00;5.00;;;;;9.10;53.67;102116.28;2081897;28;48628;-60
2022/02/01 04:42:57;;;;;;;;;5.00;5.00;;;;;9.11;53.98;102112.75;2092228;28;47608;-60
2022/02/01 04:43:59;;;;;;;;;6.67;3.67;;;;;9.11;53.89;102111.88;2091323;28;47632;-61
2022/02/01 04:45:00;;;;;;;;;5.50;5.50;;;;;9.10;54.09;102111.00;2076336;28;47448;-59
2022/02/01 04:46:04;;;;;;;;;3.00;3.00;;;;;9.10;54.20;102108.34;2070117;28;47608;-61
2022/02/01 04:47:04;;;;;;;;;3.50;3.25;;;;;9.11;54.03;102101.28;2084744;28;47566;-60
2022/02/01 04:48:05;;;;;;;;;5.33;5.00;;;;;9.11;54.24;102101.28;2091460;28;47396;-58
2022/02/01 04:49:09;;;;;;;;;4.67;4.67;;;;;9.12;54.23;102101.28;2088614;28;46357;-59
2022/02/01 04:50:13;;;;;;;;;6.00;4.50;;;;;9.13;54.35;102096.88;2089097;28;47894;-60
2022/02/01 04:51:18;;;;;;;;;4.00;4.00;;;;;9.13;54.32;102100.41;2072589;28;47526;-59
2022/02/01 04:52:19;;;;;;;;;6.00;4.50;;;;;9.14;54.28;102093.34;2082953;28;47785;-60
2022/02/01 04:53:19;;;;;;;;;4.67;4.67;;;;;9.16;54.41;102101.34;2091510;28;47235;-58
2022/02/01 04:54:19;;;;;;;;;5.67;4.00;;;;;9.17;54.31;102104.00;2089106;28;47297;-59
2022/02/01 04:55:23;;;;;;;;;8.00;6.33;;;;;9.16;54.47;102102.22;2083678;28;47402;-59
2022/02/01 04:56:25;;;;;;;;;4.75;3.50;;;;;9.18;54.62;102103.13;2092004;28;47700;-59
2022/02/01 04:57:25;;;;;;;;;5.25;5.00;;;;;9.18;54.49;102089.00;2082282;28;47726;-61
2022/02/01 04:58:26;;;;;;;;;3.67;3.67;;;;;9.18;54.80;102083.69;2081959;28;47723;-59
2022/02/01 04:59:26;;;;;;;;;3.00;3.00;;;;;9.19;54.71;102078.41;2087173;28;48068;-59
2022/02/01 05:00:30;;;;;;;;;3.67;3.67;;;;;9.19;54.72;102073.09;2077264;28;47503;-60
2022/02/01 05:01:37;;;;;;;;;4.00;4.00;;;;;9.19;54.65;102075.75;2088405;28;47649;-60
2022/02/01 05:02:38;;;;;;;;;2.50;2.50;;;;;9.20;54.81;102072.22;2089125;28;47861;-58
2022/02/01 05:03:38;;;;;;;;;4.25;4.25;;;;;9.22;54.87;102066.94;2089153;28;48164;-62
2022/02/01 05:04:39;;;;;;;;;4.00;4.00;;;;;9.21;54.77;102059.84;2094186;28;47487;-56
2022/02/01 05:05:39;;;;;;;;;5.00;5.00;;;;;9.23;55.02;102066.03;2081665;28;47434;-60
2022/02/01 05:06:39;;;;;;;;;4.00;2.00;;;;;9.23;54.68;102071.34;2087178;28;47470;-59
2022/02/01 05:07:40;;;;;;;;;5.00;4.33;;;;;9.23;54.96;102066.03;2097189;28;47449;-60
2022/02/01 05:08:42;;;;;;;;;4.00;4.00;;;;;9.23;55.28;102066.94;2097247;28;47079;-60
2022/02/01 05:09:43;;;;;;;;;3.50;3.25;;;;;9.23;55.01;102074.88;2093802;28;47656;-59
2022/02/01 05:10:43;;;;;;;;;3.33;3.00;;;;;9.23;55.25;102074.00;2088219;28;48201;-60
2022/02/01 05:11:44;;;;;;;;;3.00;3.00;;;;;9.23;55.11;102069.59;2067724;28;47699;-59
2022/02/01 05:12:44;;;;;;;;;4.33;4.33;;;;;9.22;55.23;102073.09;2075957;28;47441;-59
2022/02/01 05:14:48;;;;;;;;;3.67;3.67;;;;;9.22;55.37;102080.16;2092415;28;47996;-60
2022/02/01 05:16:02;;;;;;;;;4.50;4.50;;;;;9.22;55.43;102072.22;2091007;28;47617;-59
2022/02/01 05:17:03;;;;;;;;;3.50;2.50;;;;;9.21;55.52;102071.34;2080195;28;47910;-59
2022/02/01 05:18:04;;;;;;;;;3.00;3.00;;;;;9.20;55.70;102084.56;2083385;28;47893;-59
2022/02/01 05:19:05;;;;;;;;;4.00;4.00;;;;;9.20;55.38;102092.53;2082468;28;48079;-63
2022/02/01 05:20:40;;;;;;;;;2.00;2.00;;;;;9.19;55.52;102098.69;2084901;28;48158;-61
2022/02/01 05:21:42;;;;;;;;;3.00;3.00;;;;;9.18;55.41;102099.56;2077734;28;47515;-60
2022/02/01 05:22:45;;;;;;;;;5.75;4.00;;;;;9.16;56.02;102096.03;2075739;28;48303;-60
2022/02/01 05:23:46;;;;;;;;;4.25;3.25;;;;;9.14;55.71;102096.88;2067390;28;47769;-59
2022/02/01 05:24:49;;;;;;;;;5.50;3.75;;;;;9.13;55.87;102091.59;2090865;28;47647;-60
2022/02/01 05:25:50;;;;;;;;;3.75;3.75;;;;;9.13;55.85;102089.81;2083422;28;47910;-60
2022/02/01 05:26:54;;;;;;;;;4.75;4.75;;;;;9.13;56.34;102089.81;2076007;28;48231;-59
2022/02/01 05:27:58;;;;;;;;;3.60;3.60;;;;;9.12;55.69;102092.47;2094547;28;48336;-60
2022/02/01 05:28:58;;;;;;;;;5.50;5.50;;;;;9.10;56.10;102089.81;2088508;28;47673;-58
2022/02/01 05:29:59;;;;;;;;;4.00;3.00;;;;;9.11;56.24;102088.94;2088587;28;47507;-61
2022/02/01 05:31:02;;;;;;;;;5.33;3.00;;;;;9.11;56.36;102080.97;2083231;28;47640;-58
2022/02/01 05:32:15;;;;;;;;;3.50;3.50;;;;;9.10;56.56;102073.91;2078587;28;47489;-60
2022/02/01 05:33:15;;;;;;;;;3.50;3.00;;;;;9.10;56.34;102083.63;2078585;28;48078;-61
2022/02/01 05:34:15;;;;;;;;;2.67;2.67;;;;;9.09;56.54;102085.38;2080591;28;47727;-60
2022/02/01 05:35:16;;;;;;;;;5.00;3.00;;;;;9.10;56.53;102092.47;2080490;28;47868;-58
2022/02/01 05:36:16;;;;;;;;;4.00;3.67;;;;;9.12;56.70;102095.13;2080441;28;48308;-58
2022/02/01 05:37:17;;;;;;;;;2.67;2.67;;;;;9.11;56.73;102098.63;2080667;28;47845;-59
2022/02/01 05:38:18;;;;;;;;;4.67;4.67;;;;;9.10;56.68;102097.75;2080163;28;48008;-60
2022/02/01 05:39:24;;;;;;;;;4.75;4.75;;;;;9.11;56.57;102101.28;2080814;28;47235;-60
2022/02/01 05:40:26;;;;;;;;;3.50;3.00;;;;;9.11;56.85;102090.69;2080382;28;47334;-59
2022/02/01 05:41:27;;;;;;;;;4.25;3.75;;;;;9.11;56.97;102088.94;2080380;28;47588;-59
2022/02/01 05:42:39;;;;;;;;;5.25;4.25;;;;;9.10;56.95;102081.88;2080279;28;48173;-59
2022/02/01 05:43:42;;;;;;;;;5.25;3.00;;;;;9.10;57.11;102073.91;2080410;28;47886;-61
2022/02/01 05:44:44;;;;;;;;;4.75;4.00;;;;;9.11;57.11;102067.75;2080419;28;47675;-62
2022/02/01 05:45:45;;;;;;;;;3.50;3.50;;;;;9.11;57.27;102066.84;2082116;28;48056;-59
2022/02/01 05:46:46;;;;;;;;;5.67;5.33;;;;;9.11;57.33;102070.41;2080435;28;47491;-60
2022/02/01 05:47:47;;;;;;;;;5.00;5.00;;;;;9.09;57.19;102061.56;2080363;28;47737;-58
2022/02/01 05:48:47;;;;;;;;;4.25;4.00;;;;;9.10;57.23;102060.69;2080089;28;48170;-57
2022/02/01 05:49:48;;;;;;;;;5.33;4.00;;;;;9.11;57.35;102048.31;2080649;28;47255;-59
2022/02/01 05:50:50;;;;;;;;;9.00;7.00;;;;;9.12;57.35;102052.75;2080282;28;47707;-60
2022/02/01 05:51:50;;;;;;;;;4.00;2.25;;;;;9.12;57.62;102052.75;2080284;28;48171;-57
2022/02/01 05:52:51;;;;;;;;;5.00;5.00;;;;;9.12;57.56;102060.69;2080598;28;47334;-60
2022/02/01 05:53:51;;;;;;;;;4.67;3.67;;;;;9.13;57.72;102059.81;2080239;28;47683;-61
2022/02/01 05:54:52;;;;;;;;;3.00;3.00;;;;;9.13;57.54;102049.22;2080538;28;48265;-60
2022/02/01 05:55:52;;;;;;;;;4.67;4.67;;;;;9.13;57.69;102049.22;2076672;28;47929;-59
2022/02/01 05:56:54;;;;;;;;;4.33;3.67;;;;;9.12;57.31;102050.09;2080398;28;47851;-61
2022/02/01 05:57:54;;;;;;;;;6.00;5.00;;;;;9.12;57.81;102048.31;2080302;28;47958;-59
2022/02/01 05:58:55;;;;;;;;;4.33;4.00;;;;;9.12;57.84;102043.03;2080263;28;47581;-60
2022/02/01 05:59:55;;;;;;;;;5.33;5.33;;;;;9.12;57.95;102036.84;2083765;28;47287;-60
2022/02/01 06:00:56;;;;;;;;;5.67;4.00;;;;;9.12;58.10;102037.72;2073950;28;47660;-62
2022/02/01 06:01:58;;;;;;;;;4.33;3.33;;;;;9.13;58.00;102028.03;2080322;28;46176;-61
2022/02/01 06:03:00;;;;;;;;;3.25;3.00;;;;;9.13;58.27;102028.91;2080109;28;48191;-60
2022/02/01 06:04:01;;;;;;;;;4.00;4.00;;;;;9.14;58.23;102029.78;2080347;28;46299;-57
2022/02/01 06:05:01;;;;;;;;;6.33;5.00;;;;;9.13;58.52;102031.56;2080455;28;47840;-61
2022/02/01 06:06:02;;;;;;;;;8.33;7.67;;;;;9.15;58.42;102026.28;2080176;28;47027;-61
2022/02/01 06:07:03;;;;;;;;;4.00;3.00;;;;;9.16;58.43;102024.53;2079725;28;48259;-60
2022/02/01 06:08:03;;;;;;;;;3.67;3.67;;;;;9.16;58.47;102030.72;2079981;28;47946;-60